sensor_id;sensor_type;location;lat;lon;timestamp;P1;durP1;ratioP1;P2;durP2;ratioP2
16524;SDS011;8375;33.594;-117.718;2022-09-09T00:00:19;9.63;;;3.38;;
16524;SDS011;8375;33.594;-117.718;2022-09-09T00:02:55;8.45;;;3.45;;
16524;SDS011;8375;33.594;-117.718;2022-09-09T00:05:31;10.05;;;3.75;;
16524;SDS011;8375;33.594;-117.718;2022-09-09T00:08:07;10.18;;;3.50;;
16524;SDS011;8375;33.594;-117.718;2022-09-09T00:10:42;8.80;;;3.38;;
16524;SDS011;8375;33.594;-117.718;2022-09-09T00:13:14;8.10;;;3.35;;
16524;SDS011;8375;33.594;-117.718;2022-09-09T00:15:52;7.30;;;3.13;;
16524;SDS011;8375;33.594;-117.718;2022-09-09T00:18:31;7.30;;;3.45;;
16524;SDS011;8375;33.594;-117.718;2022-09-09T00:21:08;6.30;;;3.00;;
16524;SDS011;8375;33.594;-117.718;2022-09-09T00:23:43;5.53;;;2.50;;
16524;SDS011;8375;33.594;-117.718;2022-09-09T00:26:16;6.40;;;2.88;;
16524;SDS011;8375;33.594;-117.718;2022-09-09T00:28:51;8.05;;;2.97;;
16524;SDS011;8375;33.594;-117.718;2022-09-09T00:31:27;6.13;;;2.70;;
16524;SDS011;8375;33.594;-117.718;2022-09-09T00:34:00;6.25;;;2.65;;
16524;SDS011;8375;33.594;-117.718;2022-09-09T00:36:38;5.35;;;2.70;;
16524;SDS011;8375;33.594;-117.718;2022-09-09T00:39:08;4.65;;;2.67;;
16524;SDS011;8375;33.594;-117.718;2022-09-09T00:41:44;7.30;;;2.45;;
16524;SDS011;8375;33.594;-117.718;2022-09-09T00:44:25;5.32;;;2.33;;
16524;SDS011;8375;33.594;-117.718;2022-09-09T00:47:05;4.00;;;2.65;;
16524;SDS011;8375;33.594;-117.718;2022-09-09T00:49:50;5.40;;;2.42;;
16524;SDS011;8375;33.594;-117.718;2022-09-09T00:52:32;7.18;;;2.70;;
16524;SDS011;8375;33.594;-117.718;2022-09-09T00:55:09;4.43;;;2.63;;
16524;SDS011;8375;33.594;-117.718;2022-09-09T00:57:44;3.80;;;2.53;;
16524;SDS011;8375;33.594;-117.718;2022-09-09T01:00:22;5.60;;;3.13;;
16524;SDS011;8375;33.594;-117.718;2022-09-09T01:02:53;5.65;;;3.08;;
16524;SDS011;8375;33.594;-117.718;2022-09-09T01:05:39;8.75;;;2.80;;
16524;SDS011;8375;33.594;-117.718;2022-09-09T01:08:14;3.75;;;2.60;;
16524;SDS011;8375;33.594;-117.718;2022-09-09T01:10:56;5.88;;;2.63;;
16524;SDS011;8375;33.594;-117.718;2022-09-09T01:13:26;7.30;;;2.60;;
16524;SDS011;8375;33.594;-117.718;2022-09-09T01:15:57;4.00;;;2.40;;
16524;SDS011;8375;33.594;-117.718;2022-09-09T01:18:29;4.20;;;2.47;;
16524;SDS011;8375;33.594;-117.718;2022-09-09T01:21:04;5.68;;;2.25;;
16524;SDS011;8375;33.594;-117.718;2022-09-09T01:26:49;6.07;;;2.45;;
16524;SDS011;8375;33.594;-117.718;2022-09-09T01:29:22;4.20;;;2.45;;
16524;SDS011;8375;33.594;-117.718;2022-09-09T01:31:54;7.63;;;2.72;;
16524;SDS011;8375;33.594;-117.718;2022-09-09T01:34:25;3.40;;;2.40;;
16524;SDS011;8375;33.594;-117.718;2022-09-09T01:36:58;4.47;;;2.30;;
16524;SDS011;8375;33.594;-117.718;2022-09-09T01:39:30;3.67;;;2.03;;
16524;SDS011;8375;33.594;-117.718;2022-09-09T01:42:02;5.35;;;2.38;;
16524;SDS011;8375;33.594;-117.718;2022-09-09T01:44:32;4.97;;;2.00;;
16524;SDS011;8375;33.594;-117.718;2022-09-09T01:47:03;6.22;;;2.65;;
16524;SDS011;8375;33.594;-117.718;2022-09-09T01:49:32;4.07;;;2.45;;
16524;SDS011;8375;33.594;-117.718;2022-09-09T01:52:01;6.78;;;2.22;;
16524;SDS011;8375;33.594;-117.718;2022-09-09T01:54:30;6.57;;;2.42;;
16524;SDS011;8375;33.594;-117.718;2022-09-09T01:57:06;5.82;;;2.42;;
16524;SDS011;8375;33.594;-117.718;2022-09-09T01:59:46;5.82;;;2.60;;
16524;SDS011;8375;33.594;-117.718;2022-09-09T02:02:23;5.72;;;2.40;;
16524;SDS011;8375;33.594;-117.718;2022-09-09T02:04:54;6.00;;;2.42;;
16524;SDS011;8375;33.594;-117.718;2022-09-09T02:07:34;5.13;;;2.05;;
16524;SDS011;8375;33.594;-117.718;2022-09-09T02:10:09;5.25;;;2.42;;
16524;SDS011;8375;33.594;-117.718;2022-09-09T02:12:42;5.90;;;2.55;;
16524;SDS011;8375;33.594;-117.718;2022-09-09T02:15:16;8.98;;;3.08;;
16524;SDS011;8375;33.594;-117.718;2022-09-09T02:17:51;5.10;;;2.55;;
16524;SDS011;8375;33.594;-117.718;2022-09-09T02:20:22;6.10;;;2.70;;
16524;SDS011;8375;33.594;-117.718;2022-09-09T02:22:53;9.93;;;3.10;;
16524;SDS011;8375;33.594;-117.718;2022-09-09T02:25:24;11.05;;;2.75;;
16524;SDS011;8375;33.594;-117.718;2022-09-09T02:27:57;6.43;;;2.95;;
16524;SDS011;8375;33.594;-117.718;2022-09-09T02:30:26;6.45;;;2.80;;
16524;SDS011;8375;33.594;-117.718;2022-09-09T02:32:57;8.77;;;3.08;;
16524;SDS011;8375;33.594;-117.718;2022-09-09T02:35:28;7.65;;;3.30;;
16524;SDS011;8375;33.594;-117.718;2022-09-09T02:37:59;5.90;;;2.80;;
16524;SDS011;8375;33.594;-117.718;2022-09-09T02:40:31;6.50;;;2.42;;
16524;SDS011;8375;33.594;-117.718;2022-09-09T02:43:02;5.40;;;2.42;;
16524;SDS011;8375;33.594;-117.718;2022-09-09T02:45:34;6.07;;;2.78;;
16524;SDS011;8375;33.594;-117.718;2022-09-09T02:48:09;7.35;;;2.90;;
16524;SDS011;8375;33.594;-117.718;2022-09-09T02:50:48;5.93;;;2.45;;
16524;SDS011;8375;33.594;-117.718;2022-09-09T02:53:22;6.82;;;2.90;;
16524;SDS011;8375;33.594;-117.718;2022-09-09T02:56:01;6.18;;;2.75;;
16524;SDS011;8375;33.594;-117.718;2022-09-09T02:58:36;6.03;;;3.05;;
16524;SDS011;8375;33.594;-117.718;2022-09-09T03:01:05;4.65;;;2.50;;
16524;SDS011;8375;33.594;-117.718;2022-09-09T03:03:34;7.22;;;2.80;;
16524;SDS011;8375;33.594;-117.718;2022-09-09T03:06:03;8.77;;;2.90;;
16524;SDS011;8375;33.594;-117.718;2022-09-09T03:08:32;6.95;;;2.78;;
16524;SDS011;8375;33.594;-117.718;2022-09-09T03:11:01;6.88;;;3.03;;
16524;SDS011;8375;33.594;-117.718;2022-09-09T03:13:29;6.13;;;2.63;;
16524;SDS011;8375;33.594;-117.718;2022-09-09T03:16:01;7.30;;;2.92;;
16524;SDS011;8375;33.594;-117.718;2022-09-09T03:18:31;7.90;;;3.20;;
16524;SDS011;8375;33.594;-117.718;2022-09-09T03:21:00;9.57;;;3.05;;
16524;SDS011;8375;33.594;-117.718;2022-09-09T03:23:28;7.35;;;3.50;;
16524;SDS011;8375;33.594;-117.718;2022-09-09T03:25:57;6.22;;;3.13;;
16524;SDS011;8375;33.594;-117.718;2022-09-09T03:28:26;8.23;;;3.47;;
16524;SDS011;8375;33.594;-117.718;2022-09-09T03:30:58;8.23;;;3.15;;
16524;SDS011;8375;33.594;-117.718;2022-09-09T03:33:29;4.25;;;2.72;;
16524;SDS011;8375;33.594;-117.718;2022-09-09T03:35:59;6.13;;;2.78;;
16524;SDS011;8375;33.594;-117.718;2022-09-09T03:38:28;7.50;;;3.20;;
16524;SDS011;8375;33.594;-117.718;2022-09-09T03:40:57;7.18;;;3.38;;
16524;SDS011;8375;33.594;-117.718;2022-09-09T03:43:27;5.88;;;3.08;;
16524;SDS011;8375;33.594;-117.718;2022-09-09T03:45:56;9.60;;;3.55;;
16524;SDS011;8375;33.594;-117.718;2022-09-09T03:48:27;5.53;;;2.92;;
16524;SDS011;8375;33.594;-117.718;2022-09-09T03:50:56;6.88;;;3.63;;
16524;SDS011;8375;33.594;-117.718;2022-09-09T03:53:27;7.10;;;3.08;;
16524;SDS011;8375;33.594;-117.718;2022-09-09T03:55:56;5.80;;;3.13;;
16524;SDS011;8375;33.594;-117.718;2022-09-09T03:58:26;7.38;;;3.22;;
16524;SDS011;8375;33.594;-117.718;2022-09-09T04:00:55;7.03;;;3.05;;
16524;SDS011;8375;33.594;-117.718;2022-09-09T04:03:27;6.60;;;2.83;;
16524;SDS011;8375;33.594;-117.718;2022-09-09T04:05:57;9.75;;;3.70;;
16524;SDS011;8375;33.594;-117.718;2022-09-09T04:08:27;8.80;;;3.45;;
16524;SDS011;8375;33.594;-117.718;2022-09-09T04:10:57;8.48;;;3.30;;
16524;SDS011;8375;33.594;-117.718;2022-09-09T04:13:31;6.88;;;3.20;;
16524;SDS011;8375;33.594;-117.718;2022-09-09T04:16:00;6.80;;;3.20;;
16524;SDS011;8375;33.594;-117.718;2022-09-09T04:18:32;7.60;;;2.80;;
16524;SDS011;8375;33.594;-117.718;2022-09-09T04:21:01;8.73;;;3.65;;
16524;SDS011;8375;33.594;-117.718;2022-09-09T04:23:32;6.53;;;3.13;;
16524;SDS011;8375;33.594;-117.718;2022-09-09T04:26:02;6.68;;;3.42;;
16524;SDS011;8375;33.594;-117.718;2022-09-09T04:28:33;6.22;;;2.90;;
16524;SDS011;8375;33.594;-117.718;2022-09-09T04:31:06;9.02;;;3.47;;
16524;SDS011;8375;33.594;-117.718;2022-09-09T04:33:37;7.30;;;3.40;;
16524;SDS011;8375;33.594;-117.718;2022-09-09T04:36:06;8.85;;;3.10;;
16524;SDS011;8375;33.594;-117.718;2022-09-09T04:38:35;7.03;;;3.38;;
16524;SDS011;8375;33.594;-117.718;2022-09-09T04:41:04;6.78;;;2.95;;
16524;SDS011;8375;33.594;-117.718;2022-09-09T04:43:33;7.05;;;3.10;;
16524;SDS011;8375;33.594;-117.718;2022-09-09T04:46:01;10.57;;;3.30;;
16524;SDS011;8375;33.594;-117.718;2022-09-09T04:48:30;6.25;;;3.20;;
16524;SDS011;8375;33.594;-117.718;2022-09-09T04:51:01;8.90;;;3.50;;
16524;SDS011;8375;33.594;-117.718;2022-09-09T04:53:31;8.85;;;3.38;;
16524;SDS011;8375;33.594;-117.718;2022-09-09T04:56:01;9.27;;;3.65;;
16524;SDS011;8375;33.594;-117.718;2022-09-09T04:58:31;5.13;;;2.97;;
16524;SDS011;8375;33.594;-117.718;2022-09-09T05:01:06;5.68;;;3.13;;
16524;SDS011;8375;33.594;-117.718;2022-09-09T05:03:36;7.93;;;2.95;;
16524;SDS011;8375;33.594;-117.718;2022-09-09T05:06:08;6.28;;;3.40;;
16524;SDS011;8375;33.594;-117.718;2022-09-09T05:08:38;8.68;;;3.45;;
16524;SDS011;8375;33.594;-117.718;2022-09-09T05:11:15;8.95;;;3.45;;
16524;SDS011;8375;33.594;-117.718;2022-09-09T05:13:44;9.38;;;3.30;;
16524;SDS011;8375;33.594;-117.718;2022-09-09T05:16:15;10.88;;;3.95;;
16524;SDS011;8375;33.594;-117.718;2022-09-09T05:18:45;9.93;;;3.88;;
16524;SDS011;8375;33.594;-117.718;2022-09-09T05:21:18;8.00;;;3.30;;
16524;SDS011;8375;33.594;-117.718;2022-09-09T05:23:48;12.80;;;3.65;;
16524;SDS011;8375;33.594;-117.718;2022-09-09T05:26:18;11.35;;;3.58;;
16524;SDS011;8375;33.594;-117.718;2022-09-09T05:28:48;5.85;;;3.35;;
16524;SDS011;8375;33.594;-117.718;2022-09-09T05:31:17;11.23;;;3.90;;
16524;SDS011;8375;33.594;-117.718;2022-09-09T05:33:47;9.32;;;4.13;;
16524;SDS011;8375;33.594;-117.718;2022-09-09T05:36:18;8.48;;;3.72;;
16524;SDS011;8375;33.594;-117.718;2022-09-09T05:38:48;11.93;;;3.40;;
16524;SDS011;8375;33.594;-117.718;2022-09-09T05:41:19;10.15;;;3.30;;
16524;SDS011;8375;33.594;-117.718;2022-09-09T05:43:48;9.85;;;3.72;;
16524;SDS011;8375;33.594;-117.718;2022-09-09T05:46:17;13.60;;;3.83;;
16524;SDS011;8375;33.594;-117.718;2022-09-09T05:48:47;7.30;;;3.35;;
16524;SDS011;8375;33.594;-117.718;2022-09-09T05:51:19;10.98;;;3.10;;
16524;SDS011;8375;33.594;-117.718;2022-09-09T05:53:49;9.68;;;3.47;;
16524;SDS011;8375;33.594;-117.718;2022-09-09T05:56:21;8.13;;;3.53;;
16524;SDS011;8375;33.594;-117.718;2022-09-09T05:58:51;6.82;;;3.35;;
16524;SDS011;8375;33.594;-117.718;2022-09-09T06:01:22;9.82;;;3.80;;
16524;SDS011;8375;33.594;-117.718;2022-09-09T06:03:52;7.78;;;3.38;;
16524;SDS011;8375;33.594;-117.718;2022-09-09T06:06:23;10.65;;;3.40;;
16524;SDS011;8375;33.594;-117.718;2022-09-09T06:08:53;13.68;;;4.30;;
16524;SDS011;8375;33.594;-117.718;2022-09-09T06:11:24;17.38;;;5.75;;
16524;SDS011;8375;33.594;-117.718;2022-09-09T06:13:53;10.95;;;3.83;;
16524;SDS011;8375;33.594;-117.718;2022-09-09T06:16:23;9.60;;;4.35;;
16524;SDS011;8375;33.594;-117.718;2022-09-09T06:18:53;10.52;;;3.88;;
16524;SDS011;8375;33.594;-117.718;2022-09-09T06:21:25;11.75;;;4.28;;
16524;SDS011;8375;33.594;-117.718;2022-09-09T06:23:55;11.85;;;4.03;;
16524;SDS011;8375;33.594;-117.718;2022-09-09T06:26:24;11.07;;;3.95;;
16524;SDS011;8375;33.594;-117.718;2022-09-09T06:28:54;8.55;;;3.40;;
16524;SDS011;8375;33.594;-117.718;2022-09-09T06:31:24;10.93;;;4.18;;
16524;SDS011;8375;33.594;-117.718;2022-09-09T06:33:56;7.30;;;4.03;;
16524;SDS011;8375;33.594;-117.718;2022-09-09T06:36:27;7.55;;;3.85;;
16524;SDS011;8375;33.594;-117.718;2022-09-09T06:38:56;9.13;;;4.00;;
16524;SDS011;8375;33.594;-117.718;2022-09-09T06:41:26;9.15;;;3.72;;
16524;SDS011;8375;33.594;-117.718;2022-09-09T06:43:56;15.00;;;4.03;;
16524;SDS011;8375;33.594;-117.718;2022-09-09T06:46:25;9.65;;;3.17;;
16524;SDS011;8375;33.594;-117.718;2022-09-09T06:48:56;8.38;;;3.67;;
16524;SDS011;8375;33.594;-117.718;2022-09-09T06:51:30;8.70;;;3.78;;
16524;SDS011;8375;33.594;-117.718;2022-09-09T06:54:01;9.02;;;3.65;;
16524;SDS011;8375;33.594;-117.718;2022-09-09T06:56:31;9.23;;;3.67;;
16524;SDS011;8375;33.594;-117.718;2022-09-09T06:59:02;12.75;;;4.22;;
16524;SDS011;8375;33.594;-117.718;2022-09-09T07:01:34;8.32;;;3.95;;
16524;SDS011;8375;33.594;-117.718;2022-09-09T07:04:03;8.80;;;3.58;;
16524;SDS011;8375;33.594;-117.718;2022-09-09T07:06:35;11.10;;;3.72;;
16524;SDS011;8375;33.594;-117.718;2022-09-09T07:09:06;10.35;;;3.63;;
16524;SDS011;8375;33.594;-117.718;2022-09-09T07:11:37;8.48;;;3.63;;
16524;SDS011;8375;33.594;-117.718;2022-09-09T07:14:07;14.07;;;3.95;;
16524;SDS011;8375;33.594;-117.718;2022-09-09T07:16:38;9.80;;;3.70;;
16524;SDS011;8375;33.594;-117.718;2022-09-09T07:19:07;7.72;;;4.25;;
16524;SDS011;8375;33.594;-117.718;2022-09-09T07:21:37;13.18;;;3.80;;
16524;SDS011;8375;33.594;-117.718;2022-09-09T07:24:07;9.90;;;4.00;;
16524;SDS011;8375;33.594;-117.718;2022-09-09T07:26:36;12.98;;;4.38;;
16524;SDS011;8375;33.594;-117.718;2022-09-09T07:29:06;9.13;;;3.92;;
16524;SDS011;8375;33.594;-117.718;2022-09-09T07:31:35;8.45;;;3.85;;
16524;SDS011;8375;33.594;-117.718;2022-09-09T07:34:06;10.00;;;4.13;;
16524;SDS011;8375;33.594;-117.718;2022-09-09T07:36:35;13.52;;;4.45;;
16524;SDS011;8375;33.594;-117.718;2022-09-09T07:39:08;8.35;;;3.97;;
16524;SDS011;8375;33.594;-117.718;2022-09-09T07:41:39;13.32;;;4.70;;
16524;SDS011;8375;33.594;-117.718;2022-09-09T07:44:10;10.75;;;4.13;;
16524;SDS011;8375;33.594;-117.718;2022-09-09T07:46:40;11.43;;;4.50;;
16524;SDS011;8375;33.594;-117.718;2022-09-09T07:49:10;11.95;;;4.35;;
16524;SDS011;8375;33.594;-117.718;2022-09-09T07:51:42;15.90;;;4.93;;
16524;SDS011;8375;33.594;-117.718;2022-09-09T07:54:12;7.43;;;3.55;;
16524;SDS011;8375;33.594;-117.718;2022-09-09T07:56:43;9.23;;;4.32;;
16524;SDS011;8375;33.594;-117.718;2022-09-09T07:59:12;14.23;;;5.32;;
16524;SDS011;8375;33.594;-117.718;2022-09-09T08:01:41;11.75;;;4.75;;
16524;SDS011;8375;33.594;-117.718;2022-09-09T08:04:12;13.32;;;4.30;;
16524;SDS011;8375;33.594;-117.718;2022-09-09T08:06:44;15.02;;;4.75;;
16524;SDS011;8375;33.594;-117.718;2022-09-09T08:09:14;12.43;;;4.57;;
16524;SDS011;8375;33.594;-117.718;2022-09-09T08:11:43;12.40;;;4.65;;
16524;SDS011;8375;33.594;-117.718;2022-09-09T08:14:13;10.48;;;4.53;;
16524;SDS011;8375;33.594;-117.718;2022-09-09T08:16:43;12.25;;;4.90;;
16524;SDS011;8375;33.594;-117.718;2022-09-09T08:19:12;12.95;;;4.88;;
16524;SDS011;8375;33.594;-117.718;2022-09-09T08:21:42;16.25;;;5.22;;
16524;SDS011;8375;33.594;-117.718;2022-09-09T08:24:13;13.32;;;5.22;;
16524;SDS011;8375;33.594;-117.718;2022-09-09T08:26:42;15.20;;;5.00;;
16524;SDS011;8375;33.594;-117.718;2022-09-09T08:29:12;9.48;;;4.35;;
16524;SDS011;8375;33.594;-117.718;2022-09-09T08:31:42;12.70;;;4.65;;
16524;SDS011;8375;33.594;-117.718;2022-09-09T08:34:11;10.00;;;4.35;;
16524;SDS011;8375;33.594;-117.718;2022-09-09T08:36:41;9.82;;;4.63;;
16524;SDS011;8375;33.594;-117.718;2022-09-09T08:39:13;14.70;;;4.85;;
16524;SDS011;8375;33.594;-117.718;2022-09-09T08:41:52;11.18;;;4.45;;
16524;SDS011;8375;33.594;-117.718;2022-09-09T08:44:34;11.15;;;4.15;;
16524;SDS011;8375;33.594;-117.718;2022-09-09T08:47:16;13.30;;;4.72;;
16524;SDS011;8375;33.594;-117.718;2022-09-09T08:49:59;13.15;;;4.65;;
16524;SDS011;8375;33.594;-117.718;2022-09-09T08:52:37;9.20;;;4.60;;
16524;SDS011;8375;33.594;-117.718;2022-09-09T08:55:15;11.63;;;4.63;;
16524;SDS011;8375;33.594;-117.718;2022-09-09T08:57:52;14.73;;;4.85;;
16524;SDS011;8375;33.594;-117.718;2022-09-09T09:00:25;10.88;;;4.80;;
16524;SDS011;8375;33.594;-117.718;2022-09-09T09:03:03;12.85;;;5.22;;
16524;SDS011;8375;33.594;-117.718;2022-09-09T09:05:43;13.60;;;4.80;;
16524;SDS011;8375;33.594;-117.718;2022-09-09T09:08:20;10.13;;;4.80;;
16524;SDS011;8375;33.594;-117.718;2022-09-09T09:10:59;12.80;;;4.40;;
16524;SDS011;8375;33.594;-117.718;2022-09-09T09:13:32;8.32;;;4.35;;
16524;SDS011;8375;33.594;-117.718;2022-09-09T09:16:10;8.45;;;4.38;;
16524;SDS011;8375;33.594;-117.718;2022-09-09T09:18:46;9.32;;;4.65;;
16524;SDS011;8375;33.594;-117.718;2022-09-09T09:21:17;11.02;;;4.82;;
16524;SDS011;8375;33.594;-117.718;2022-09-09T09:23:51;9.85;;;4.38;;
16524;SDS011;8375;33.594;-117.718;2022-09-09T09:26:25;6.82;;;4.07;;
16524;SDS011;8375;33.594;-117.718;2022-09-09T09:29:00;9.30;;;4.38;;
16524;SDS011;8375;33.594;-117.718;2022-09-09T09:31:37;10.43;;;4.90;;
16524;SDS011;8375;33.594;-117.718;2022-09-09T09:34:07;12.85;;;4.80;;
16524;SDS011;8375;33.594;-117.718;2022-09-09T09:36:39;8.07;;;4.30;;
16524;SDS011;8375;33.594;-117.718;2022-09-09T09:39:21;11.27;;;4.65;;
16524;SDS011;8375;33.594;-117.718;2022-09-09T09:41:52;9.32;;;4.28;;
16524;SDS011;8375;33.594;-117.718;2022-09-09T09:44:22;13.20;;;4.55;;
16524;SDS011;8375;33.594;-117.718;2022-09-09T09:46:53;13.73;;;4.45;;
16524;SDS011;8375;33.594;-117.718;2022-09-09T09:49:33;10.70;;;4.95;;
16524;SDS011;8375;33.594;-117.718;2022-09-09T09:52:01;10.82;;;4.45;;
16524;SDS011;8375;33.594;-117.718;2022-09-09T09:54:32;10.15;;;4.18;;
16524;SDS011;8375;33.594;-117.718;2022-09-09T09:57:10;11.65;;;4.60;;
16524;SDS011;8375;33.594;-117.718;2022-09-09T09:59:40;7.60;;;4.25;;
16524;SDS011;8375;33.594;-117.718;2022-09-09T10:02:13;11.85;;;4.50;;
16524;SDS011;8375;33.594;-117.718;2022-09-09T10:04:44;12.30;;;5.00;;
16524;SDS011;8375;33.594;-117.718;2022-09-09T10:07:13;16.50;;;5.10;;
16524;SDS011;8375;33.594;-117.718;2022-09-09T10:09:47;14.27;;;4.95;;
16524;SDS011;8375;33.594;-117.718;2022-09-09T10:12:24;9.40;;;4.10;;
16524;SDS011;8375;33.594;-117.718;2022-09-09T10:15:02;14.63;;;5.22;;
16524;SDS011;8375;33.594;-117.718;2022-09-09T10:17:44;16.20;;;4.97;;
16524;SDS011;8375;33.594;-117.718;2022-09-09T10:20:32;12.02;;;4.40;;
16524;SDS011;8375;33.594;-117.718;2022-09-09T10:23:13;9.88;;;4.32;;
16524;SDS011;8375;33.594;-117.718;2022-09-09T10:25:57;13.50;;;5.03;;
16524;SDS011;8375;33.594;-117.718;2022-09-09T10:28:46;11.50;;;4.85;;
16524;SDS011;8375;33.594;-117.718;2022-09-09T10:31:29;9.93;;;4.93;;
16524;SDS011;8375;33.594;-117.718;2022-09-09T10:34:06;14.35;;;5.45;;
16524;SDS011;8375;33.594;-117.718;2022-09-09T10:36:47;12.80;;;4.95;;
16524;SDS011;8375;33.594;-117.718;2022-09-09T10:39:20;12.48;;;4.97;;
16524;SDS011;8375;33.594;-117.718;2022-09-09T10:42:03;12.18;;;5.05;;
16524;SDS011;8375;33.594;-117.718;2022-09-09T10:47:55;10.32;;;4.53;;
16524;SDS011;8375;33.594;-117.718;2022-09-09T10:50:42;11.02;;;5.10;;
16524;SDS011;8375;33.594;-117.718;2022-09-09T10:53:24;11.82;;;5.60;;
16524;SDS011;8375;33.594;-117.718;2022-09-09T10:56:04;14.80;;;5.03;;
16524;SDS011;8375;33.594;-117.718;2022-09-09T10:58:37;11.32;;;5.10;;
16524;SDS011;8375;33.594;-117.718;2022-09-09T11:01:12;15.80;;;5.22;;
16524;SDS011;8375;33.594;-117.718;2022-09-09T11:03:46;13.98;;;4.93;;
16524;SDS011;8375;33.594;-117.718;2022-09-09T11:06:21;14.32;;;5.43;;
16524;SDS011;8375;33.594;-117.718;2022-09-09T11:08:57;11.48;;;5.20;;
16524;SDS011;8375;33.594;-117.718;2022-09-09T11:11:29;10.98;;;4.97;;
16524;SDS011;8375;33.594;-117.718;2022-09-09T11:14:03;12.63;;;4.93;;
16524;SDS011;8375;33.594;-117.718;2022-09-09T11:16:40;9.55;;;4.32;;
16524;SDS011;8375;33.594;-117.718;2022-09-09T11:19:14;9.05;;;4.55;;
16524;SDS011;8375;33.594;-117.718;2022-09-09T11:21:49;13.02;;;5.13;;
16524;SDS011;8375;33.594;-117.718;2022-09-09T11:24:21;16.55;;;5.55;;
16524;SDS011;8375;33.594;-117.718;2022-09-09T11:26:54;11.25;;;4.70;;
16524;SDS011;8375;33.594;-117.718;2022-09-09T11:29:35;12.57;;;4.82;;
16524;SDS011;8375;33.594;-117.718;2022-09-09T11:32:22;12.20;;;4.97;;
16524;SDS011;8375;33.594;-117.718;2022-09-09T11:35:11;10.60;;;4.45;;
16524;SDS011;8375;33.594;-117.718;2022-09-09T11:38:05;8.07;;;4.00;;
16524;SDS011;8375;33.594;-117.718;2022-09-09T11:40:59;7.82;;;4.05;;
16524;SDS011;8375;33.594;-117.718;2022-09-09T11:43:32;8.25;;;3.97;;
16524;SDS011;8375;33.594;-117.718;2022-09-09T11:46:08;9.45;;;3.78;;
16524;SDS011;8375;33.594;-117.718;2022-09-09T11:48:39;12.40;;;4.18;;
16524;SDS011;8375;33.594;-117.718;2022-09-09T11:51:11;9.25;;;3.83;;
16524;SDS011;8375;33.594;-117.718;2022-09-09T11:53:47;3.53;;;2.95;;
16524;SDS011;8375;33.594;-117.718;2022-09-09T11:56:26;7.05;;;3.47;;
16524;SDS011;8375;33.594;-117.718;2022-09-09T11:58:57;6.55;;;3.17;;
16524;SDS011;8375;33.594;-117.718;2022-09-09T12:01:36;7.00;;;2.80;;
16524;SDS011;8375;33.594;-117.718;2022-09-09T12:04:12;6.38;;;2.30;;
16524;SDS011;8375;33.594;-117.718;2022-09-09T12:06:57;6.53;;;2.55;;
16524;SDS011;8375;33.594;-117.718;2022-09-09T12:09:41;4.45;;;2.15;;
16524;SDS011;8375;33.594;-117.718;2022-09-09T12:15:21;7.90;;;2.28;;
16524;SDS011;8375;33.594;-117.718;2022-09-09T12:17:54;3.97;;;2.05;;
16524;SDS011;8375;33.594;-117.718;2022-09-09T12:20:30;7.95;;;2.00;;
16524;SDS011;8375;33.594;-117.718;2022-09-09T12:23:05;4.57;;;1.85;;
16524;SDS011;8375;33.594;-117.718;2022-09-09T12:29:02;6.03;;;1.80;;
16524;SDS011;8375;33.594;-117.718;2022-09-09T12:31:39;5.68;;;2.10;;
16524;SDS011;8375;33.594;-117.718;2022-09-09T12:34:14;8.77;;;2.22;;
16524;SDS011;8375;33.594;-117.718;2022-09-09T12:36:48;7.07;;;2.35;;
16524;SDS011;8375;33.594;-117.718;2022-09-09T12:39:27;6.80;;;2.65;;
16524;SDS011;8375;33.594;-117.718;2022-09-09T12:42:01;7.07;;;2.20;;
16524;SDS011;8375;33.594;-117.718;2022-09-09T12:44:30;6.65;;;2.17;;
16524;SDS011;8375;33.594;-117.718;2022-09-09T12:46:59;5.93;;;2.38;;
16524;SDS011;8375;33.594;-117.718;2022-09-09T12:49:31;9.25;;;1.92;;
16524;SDS011;8375;33.594;-117.718;2022-09-09T12:52:05;6.82;;;1.98;;
16524;SDS011;8375;33.594;-117.718;2022-09-09T12:54:36;4.45;;;1.88;;
16524;SDS011;8375;33.594;-117.718;2022-09-09T12:57:05;5.10;;;2.03;;
16524;SDS011;8375;33.594;-117.718;2022-09-09T12:59:38;3.83;;;2.03;;
16524;SDS011;8375;33.594;-117.718;2022-09-09T13:02:14;6.50;;;2.03;;
16524;SDS011;8375;33.594;-117.718;2022-09-09T13:04:46;4.75;;;2.10;;
16524;SDS011;8375;33.594;-117.718;2022-09-09T13:07:17;9.15;;;2.05;;
16524;SDS011;8375;33.594;-117.718;2022-09-09T13:09:47;8.35;;;2.30;;
16524;SDS011;8375;33.594;-117.718;2022-09-09T13:12:17;7.95;;;2.35;;
16524;SDS011;8375;33.594;-117.718;2022-09-09T13:14:48;6.40;;;1.90;;
16524;SDS011;8375;33.594;-117.718;2022-09-09T13:17:20;6.78;;;2.00;;
16524;SDS011;8375;33.594;-117.718;2022-09-09T13:19:51;9.30;;;2.10;;
16524;SDS011;8375;33.594;-117.718;2022-09-09T13:22:24;14.52;;;2.60;;
16524;SDS011;8375;33.594;-117.718;2022-09-09T13:24:59;5.43;;;2.05;;
16524;SDS011;8375;33.594;-117.718;2022-09-09T13:27:30;9.15;;;2.05;;
16524;SDS011;8375;33.594;-117.718;2022-09-09T13:30:00;8.63;;;1.95;;
16524;SDS011;8375;33.594;-117.718;2022-09-09T13:32:29;8.07;;;1.90;;
16524;SDS011;8375;33.594;-117.718;2022-09-09T13:34:58;12.65;;;2.15;;
16524;SDS011;8375;33.594;-117.718;2022-09-09T13:37:30;7.85;;;1.77;;
16524;SDS011;8375;33.594;-117.718;2022-09-09T13:40:02;9.00;;;1.90;;
16524;SDS011;8375;33.594;-117.718;2022-09-09T13:42:33;9.35;;;1.90;;
16524;SDS011;8375;33.594;-117.718;2022-09-09T13:45:15;6.75;;;1.80;;
16524;SDS011;8375;33.594;-117.718;2022-09-09T13:47:46;13.10;;;2.13;;
16524;SDS011;8375;33.594;-117.718;2022-09-09T13:50:22;8.98;;;2.08;;
16524;SDS011;8375;33.594;-117.718;2022-09-09T13:52:54;9.45;;;1.88;;
16524;SDS011;8375;33.594;-117.718;2022-09-09T13:55:24;7.20;;;1.50;;
16524;SDS011;8375;33.594;-117.718;2022-09-09T13:57:55;6.60;;;1.95;;
16524;SDS011;8375;33.594;-117.718;2022-09-09T14:00:26;9.65;;;1.80;;
16524;SDS011;8375;33.594;-117.718;2022-09-09T14:02:56;13.32;;;2.60;;
16524;SDS011;8375;33.594;-117.718;2022-09-09T14:05:27;14.50;;;2.33;;
16524;SDS011;8375;33.594;-117.718;2022-09-09T14:07:59;11.35;;;1.92;;
16524;SDS011;8375;33.594;-117.718;2022-09-09T14:10:30;8.20;;;2.30;;
16524;SDS011;8375;33.594;-117.718;2022-09-09T14:13:04;8.38;;;2.38;;
16524;SDS011;8375;33.594;-117.718;2022-09-09T14:15:34;10.52;;;2.53;;
16524;SDS011;8375;33.594;-117.718;2022-09-09T14:18:03;11.52;;;2.50;;
16524;SDS011;8375;33.594;-117.718;2022-09-09T14:20:32;9.90;;;2.30;;
16524;SDS011;8375;33.594;-117.718;2022-09-09T14:23:04;9.07;;;2.08;;
16524;SDS011;8375;33.594;-117.718;2022-09-09T14:25:33;11.23;;;2.45;;
16524;SDS011;8375;33.594;-117.718;2022-09-09T14:28:03;9.50;;;3.13;;
16524;SDS011;8375;33.594;-117.718;2022-09-09T14:30:33;10.25;;;2.50;;
16524;SDS011;8375;33.594;-117.718;2022-09-09T14:33:01;10.23;;;2.60;;
16524;SDS011;8375;33.594;-117.718;2022-09-09T14:35:30;9.88;;;2.50;;
16524;SDS011;8375;33.594;-117.718;2022-09-09T14:37:59;9.07;;;2.25;;
16524;SDS011;8375;33.594;-117.718;2022-09-09T14:40:29;11.00;;;2.47;;
16524;SDS011;8375;33.594;-117.718;2022-09-09T14:42:59;10.30;;;2.28;;
16524;SDS011;8375;33.594;-117.718;2022-09-09T14:45:28;6.93;;;1.80;;
16524;SDS011;8375;33.594;-117.718;2022-09-09T14:47:56;16.63;;;2.55;;
16524;SDS011;8375;33.594;-117.718;2022-09-09T14:50:25;9.23;;;2.20;;
16524;SDS011;8375;33.594;-117.718;2022-09-09T14:52:54;7.40;;;1.50;;
16524;SDS011;8375;33.594;-117.718;2022-09-09T14:55:22;9.48;;;1.85;;
16524;SDS011;8375;33.594;-117.718;2022-09-09T14:57:55;10.25;;;1.90;;
16524;SDS011;8375;33.594;-117.718;2022-09-09T15:00:24;10.43;;;2.08;;